Morning Lady — 3FKC3 — position and weather

sailwx.info

Track history (hours):
 
Tides and Currents Weather Stations Pressure Air Temp Water Temp Dewpoint Dewpoint Depression Visibility Wind Speed Wind Dir Waves Ship Positions

Morning Lady

Last reported at 2014-Aug-15 11:32 UTC. Time now 2014-Aug-21 08:15 UTC.
Position N 23°53' E 118°47'.

Length 234 m; draft 8.7 m.

Type: Ship. MMSI: 356473000.

Date/timePositionNaut miles runAvg speedWind from/ knotsBaromVisibWave heightAir tempDewpointWater temp
2014-Aug-15 11:32N 23°53' E 118°47'1515.2
2014-Aug-15 10:33N 23°41' E 118°37'1515.2
2014-Aug-15 09:33N 23°30' E 118°26'1514.8
2014-Aug-15 08:32N 23°20' E 118°13'2214.8
2014-Aug-15 07:05N 23°11' E 117°52'23315.0
2014-Aug-14 15:33N 21°57' E 113°53'1212.1
2014-Aug-14 14:33N 22°08' E 113°48'1010.5
2014-Aug-14 13:33N 22°18' E 113°48'1514.7
2014-Aug-14 12:33N 22°33' E 113°44'1312.7
2014-Aug-14 11:31N 22°45' E 113°39'1010.5
2014-Aug-14 10:33N 22°54' E 113°34'7 7.2
2014-Aug-14 09:33N 23°01' E 113°32'0 0.0
2014-Aug-14 08:23N 23°01' E 113°32'0 0.0
2014-Aug-14 07:17N 23°01' E 113°32'0 0.0
2014-Aug-14 06:29N 23°01' E 113°32'0 0.0
2014-Aug-14 05:29N 23°01' E 113°32'0 0.0
2014-Aug-14 04:23N 23°01' E 113°32'0 0.0
2014-Aug-14 03:23N 23°01' E 113°32'0 0.0
2014-Aug-14 02:23N 23°01' E 113°32'0 0.0
2014-Aug-14 01:29N 23°01' E 113°32'0 0.0
2014-Aug-14 00:29N 23°01' E 113°32'0 0.0
2014-Aug-13 23:23N 23°01' E 113°32'0 0.0
2014-Aug-13 22:17N 23°01' E 113°32'0 0.0
2014-Aug-13 21:29N 23°01' E 113°32'0 0.0
2014-Aug-13 20:23N 23°01' E 113°32'0 0.0
2014-Aug-13 19:23N 23°01' E 113°32'0 0.0
2014-Aug-13 18:29N 23°01' E 113°32'0 0.0
2014-Aug-13 17:23N 23°01' E 113°32'0 0.0
2014-Aug-13 16:23N 23°01' E 113°32'0 0.0
2014-Aug-13 15:23N 23°01' E 113°32'0 0.0
2014-Aug-13 14:29N 23°01' E 113°32'0 0.0
2014-Aug-13 13:23N 23°01' E 113°32'0 0.0
2014-Aug-13 12:29N 23°01' E 113°32'0 0.0
2014-Aug-13 11:29N 23°01' E 113°32'0 0.0
2014-Aug-13 10:05N 23°01' E 113°32'0 0.0
2014-Aug-13 09:29N 23°01' E 113°32'3 3.0
2014-Aug-13 08:33N 22°58' E 113°33'8 7.7
2014-Aug-13 07:32N 22°51' E 113°35'10 9.8
2014-Aug-13 06:33N 22°43' E 113°41'1413.1
2014-Aug-13 05:30N 22°30' E 113°45'1212.9
2014-Aug-13 04:33N 22°18' E 113°48'9 8.7
2014-Aug-13 03:33N 22°09' E 113°48'8 7.9
2014-Aug-13 02:33N 22°02' E 113°51'  
2014-Aug-08 23:33N 01°14' E 103°60'  
Track history (hours):
 
Tides and Currents Weather Stations Pressure Air Temp Water Temp Dewpoint Dewpoint Depression Visibility Wind Speed Wind Dir Waves Ship Positions

Morning Lady

Last reported at 2014-Aug-15 11:32 UTC. Time now 2014-Aug-21 08:15 UTC.
Position N 23°53' E 118°47'.

Length 234 m; draft 8.7 m.

Type: Ship. MMSI: 356473000.

Date/timePositionNaut miles runAvg speedWind from/ knotsBaromVisibWave heightAir tempDewpointWater temp
2014-Aug-15 11:32N 23°53' E 118°47'1515.2
2014-Aug-15 10:33N 23°41' E 118°37'1515.2
2014-Aug-15 09:33N 23°30' E 118°26'1514.8
2014-Aug-15 08:32N 23°20' E 118°13'2214.8
2014-Aug-15 07:05N 23°11' E 117°52'23315.0
2014-Aug-14 15:33N 21°57' E 113°53'1212.1
2014-Aug-14 14:33N 22°08' E 113°48'1010.5
2014-Aug-14 13:33N 22°18' E 113°48'1514.7
2014-Aug-14 12:33N 22°33' E 113°44'1312.7
2014-Aug-14 11:31N 22°45' E 113°39'1010.5
2014-Aug-14 10:33N 22°54' E 113°34'7 7.2
2014-Aug-14 09:33N 23°01' E 113°32'0 0.0
2014-Aug-14 08:23N 23°01' E 113°32'0 0.0
2014-Aug-14 07:17N 23°01' E 113°32'0 0.0
2014-Aug-14 06:29N 23°01' E 113°32'0 0.0
2014-Aug-14 05:29N 23°01' E 113°32'0 0.0
2014-Aug-14 04:23N 23°01' E 113°32'0 0.0
2014-Aug-14 03:23N 23°01' E 113°32'0 0.0
2014-Aug-14 02:23N 23°01' E 113°32'0 0.0
2014-Aug-14 01:29N 23°01' E 113°32'0 0.0
2014-Aug-14 00:29N 23°01' E 113°32'0 0.0
2014-Aug-13 23:23N 23°01' E 113°32'0 0.0
2014-Aug-13 22:17N 23°01' E 113°32'0 0.0
2014-Aug-13 21:29N 23°01' E 113°32'0 0.0
2014-Aug-13 20:23N 23°01' E 113°32'0 0.0
2014-Aug-13 19:23N 23°01' E 113°32'0 0.0
2014-Aug-13 18:29N 23°01' E 113°32'0 0.0
2014-Aug-13 17:23N 23°01' E 113°32'0 0.0
2014-Aug-13 16:23N 23°01' E 113°32'0 0.0
2014-Aug-13 15:23N 23°01' E 113°32'0 0.0
2014-Aug-13 14:29N 23°01' E 113°32'0 0.0
2014-Aug-13 13:23N 23°01' E 113°32'0 0.0
2014-Aug-13 12:29N 23°01' E 113°32'0 0.0
2014-Aug-13 11:29N 23°01' E 113°32'0 0.0
2014-Aug-13 10:05N 23°01' E 113°32'0 0.0
2014-Aug-13 09:29N 23°01' E 113°32'3 3.0
2014-Aug-13 08:33N 22°58' E 113°33'8 7.7
2014-Aug-13 07:32N 22°51' E 113°35'10 9.8
2014-Aug-13 06:33N 22°43' E 113°41'1413.1
2014-Aug-13 05:30N 22°30' E 113°45'1212.9
2014-Aug-13 04:33N 22°18' E 113°48'9 8.7
2014-Aug-13 03:33N 22°09' E 113°48'8 7.9
2014-Aug-13 02:33N 22°02' E 113°51'  
2014-Aug-08 23:33N 01°14' E 103°60'  

Dump ship's entire track history